Time;durP1;ratioP1;P1;durP2;ratioP2;P2;SDS_P1;SDS_P2;PMS_P1;PMS_P2;Temp;Humidity;BMP_temperature;BMP_pressure;BME280_temperature;BME280_humidity;BME280_pressure;Samples;Min_cycle;Max_cycle;Signal;HPM_P1;HPM_P2
2021/05/22 00:00:23;;;;;;;6.30;1.45;;;;;;;;;;5011456;28;20018;-79
2021/05/22 00:02:49;;;;;;;9.85;1.00;;;;;;;;;;5011346;28;20076;-80
2021/05/22 00:05:14;;;;;;;6.82;1.20;;;;;;;;;;5011267;28;20025;-79
2021/05/22 00:07:39;;;;;;;9.13;1.50;;;;;;;;;;5011196;28;20018;-79
2021/05/22 00:10:06;;;;;;;11.13;1.08;;;;;;;;;;5011295;28;20101;-79
2021/05/22 00:12:31;;;;;;;6.00;1.17;;;;;;;;;;5010622;28;20010;-80
2021/05/22 00:14:57;;;;;;;7.63;1.23;;;;;;;;;;5011122;28;20346;-80
2021/05/22 00:17:22;;;;;;;7.47;1.25;;;;;;;;;;5011171;28;20029;-80
2021/05/22 00:19:47;;;;;;;8.23;0.93;;;;;;;;;;5011288;28;20163;-79
2021/05/22 00:22:12;;;;;;;10.10;1.30;;;;;;;;;;5015501;28;20406;-79
2021/05/22 00:24:38;;;;;;;6.90;1.00;;;;;;;;;;5009595;28;20029;-79
2021/05/22 00:27:03;;;;;;;4.95;0.90;;;;;;;;;;5008182;28;20485;-80
2021/05/22 00:29:28;;;;;;;5.22;0.80;;;;;;;;;;5025755;28;20026;-80
2021/05/22 00:31:53;;;;;;;3.90;0.70;;;;;;;;;;5026170;28;20168;-79
2021/05/22 00:34:19;;;;;;;3.78;0.75;;;;;;;;;;5010838;28;20018;-80
2021/05/22 00:36:44;;;;;;;6.97;0.98;;;;;;;;;;5010717;28;20066;-79
2021/05/22 00:39:09;;;;;;;8.00;0.98;;;;;;;;;;5009594;28;20153;-80
2021/05/22 00:41:34;;;;;;;5.38;0.77;;;;;;;;;;5010862;28;20447;-79
2021/05/22 00:43:59;;;;;;;5.03;0.90;;;;;;;;;;5010521;28;20020;-79
2021/05/22 00:46:25;;;;;;;4.32;0.88;;;;;;;;;;5010680;28;20108;-79
2021/05/22 00:48:50;;;;;;;6.50;0.60;;;;;;;;;;5010752;28;20454;-79
2021/05/22 00:51:15;;;;;;;6.10;0.90;;;;;;;;;;5010481;28;20040;-79
2021/05/22 00:53:40;;;;;;;2.78;0.63;;;;;;;;;;5011220;28;20109;-80
2021/05/22 00:56:05;;;;;;;3.08;0.80;;;;;;;;;;5010633;28;20055;-79
2021/05/22 00:58:32;;;;;;;6.05;1.00;;;;;;;;;;5009500;28;20453;-79
2021/05/22 01:00:58;;;;;;;3.65;0.77;;;;;;;;;;5008938;28;20026;-80
2021/05/22 01:03:28;;;;;;;3.55;0.63;;;;;;;;;;5010305;28;20026;-80
2021/05/22 01:06:12;;;;;;;5.75;1.23;;;;;;;;;;5011119;28;20036;-80
2021/05/22 01:08:39;;;;;;;7.03;1.48;;;;;;;;;;4998273;28;20517;-80
2021/05/22 01:11:11;;;;;;;5.70;0.82;;;;;;;;;;5010361;28;20492;-80
2021/05/22 01:13:37;;;;;;;4.80;0.80;;;;;;;;;;5009144;28;20022;-80
2021/05/22 01:16:03;;;;;;;6.50;1.42;;;;;;;;;;5010161;28;20026;-81
2021/05/22 01:18:28;;;;;;;4.85;0.95;;;;;;;;;;5009080;28;20018;-80
2021/05/22 01:20:55;;;;;;;14.00;1.40;;;;;;;;;;5009171;28;20025;-80
2021/05/22 01:23:24;;;;;;;6.38;1.45;;;;;;;;;;5010152;28;20025;-80
2021/05/22 01:25:51;;;;;;;9.45;0.95;;;;;;;;;;5016646;28;20021;-80
2021/05/22 01:28:16;;;;;;;9.00;1.27;;;;;;;;;;5014650;28;20030;-80
2021/05/22 01:30:43;;;;;;;6.65;1.20;;;;;;;;;;5010212;28;20016;-80
2021/05/22 01:33:09;;;;;;;8.63;1.40;;;;;;;;;;5011054;28;20477;-80
2021/05/22 01:35:34;;;;;;;4.57;0.70;;;;;;;;;;5008606;28;20032;-80
2021/05/22 01:37:59;;;;;;;5.57;1.10;;;;;;;;;;5010218;28;20041;-80
2021/05/22 01:40:25;;;;;;;11.52;1.42;;;;;;;;;;5009946;28;20014;-80
2021/05/22 01:42:50;;;;;;;11.35;1.33;;;;;;;;;;5008775;28;20029;-80
2021/05/22 01:45:17;;;;;;;9.55;1.02;;;;;;;;;;5010151;28;20109;-79
2021/05/22 01:47:44;;;;;;;9.00;0.90;;;;;;;;;;5009949;28;20141;-80
2021/05/22 01:50:11;;;;;;;8.27;1.08;;;;;;;;;;5009902;28;20022;-80
2021/05/22 01:52:38;;;;;;;3.40;0.75;;;;;;;;;;5009596;28;20018;-80
2021/05/22 01:55:04;;;;;;;5.07;0.95;;;;;;;;;;5008887;28;20026;-79
2021/05/22 01:57:33;;;;;;;16.30;1.13;;;;;;;;;;5009562;28;20079;-80
2021/05/22 01:59:59;;;;;;;4.95;1.30;;;;;;;;;;5024505;28;20021;-80
2021/05/22 02:02:24;;;;;;;4.82;0.85;;;;;;;;;;5009822;28;20014;-80
2021/05/22 02:04:50;;;;;;;15.85;0.75;;;;;;;;;;5009798;28;20014;-80
2021/05/22 02:07:17;;;;;;;15.10;1.55;;;;;;;;;;5009616;28;20473;-80
2021/05/22 02:09:42;;;;;;;25.10;1.50;;;;;;;;;;5024808;28;20105;-80
2021/05/22 02:12:08;;;;;;;8.02;0.90;;;;;;;;;;5007904;28;20106;-79
2021/05/22 02:14:34;;;;;;;13.20;1.30;;;;;;;;;;5022900;28;20061;-80
2021/05/22 02:17:00;;;;;;;11.82;1.10;;;;;;;;;;5006694;28;20026;-80
2021/05/22 02:19:27;;;;;;;8.80;1.40;;;;;;;;;;5007637;28;20461;-80
2021/05/22 02:21:53;;;;;;;9.00;1.20;;;;;;;;;;5007634;28;20093;-80
2021/05/22 02:24:23;;;;;;;12.00;2.20;;;;;;;;;;5008245;28;20537;-80
2021/05/22 02:26:48;;;;;;;6.40;1.27;;;;;;;;;;5008319;28;20064;-80
2021/05/22 02:29:18;;;;;;;6.43;1.08;;;;;;;;;;5007990;28;20021;-80
2021/05/22 02:31:47;;;;;;;11.55;1.20;;;;;;;;;;5007329;28;20029;-80
2021/05/22 02:34:13;;;;;;;12.00;1.25;;;;;;;;;;5007547;28;20096;-80
2021/05/22 02:36:39;;;;;;;7.78;1.23;;;;;;;;;;5007843;28;20449;-80
2021/05/22 02:39:05;;;;;;;6.50;1.15;;;;;;;;;;5009703;28;20469;-80
2021/05/22 02:41:31;;;;;;;11.32;1.00;;;;;;;;;;5019082;28;20033;-80
2021/05/22 02:43:58;;;;;;;10.18;1.27;;;;;;;;;;5013966;28;20018;-80
2021/05/22 02:46:23;;;;;;;5.95;1.08;;;;;;;;;;5011478;28;20074;-80
2021/05/22 02:48:50;;;;;;;14.70;1.58;;;;;;;;;;5011243;28;20105;-80
2021/05/22 02:51:17;;;;;;;8.25;1.40;;;;;;;;;;5027793;28;20061;-80
2021/05/22 02:53:42;;;;;;;9.40;1.65;;;;;;;;;;5011758;28;20104;-80
2021/05/22 02:56:09;;;;;;;9.85;1.25;;;;;;;;;;5012084;28;20478;-80
2021/05/22 02:58:35;;;;;;;14.43;1.38;;;;;;;;;;5012570;28;20374;-80
2021/05/22 03:01:01;;;;;;;9.63;1.63;;;;;;;;;;5012061;28;20021;-80
2021/05/22 03:03:26;;;;;;;13.30;1.90;;;;;;;;;;5011000;28;20018;-80
2021/05/22 03:05:51;;;;;;;8.90;1.67;;;;;;;;;;5011985;28;20022;-81
2021/05/22 03:08:17;;;;;;;10.38;1.80;;;;;;;;;;5027654;28;20026;-80
2021/05/22 03:10:42;;;;;;;11.10;1.35;;;;;;;;;;5012300;28;20094;-80
2021/05/22 03:13:07;;;;;;;8.07;1.42;;;;;;;;;;5010976;28;20112;-80
2021/05/22 03:15:33;;;;;;;9.07;1.40;;;;;;;;;;5011130;28;20026;-80
2021/05/22 03:17:58;;;;;;;9.65;1.33;;;;;;;;;;5011997;28;20018;-80
2021/05/22 03:20:23;;;;;;;7.63;1.20;;;;;;;;;;5017110;28;20452;-80
2021/05/22 03:22:48;;;;;;;8.88;1.20;;;;;;;;;;5013332;28;20022;-79
2021/05/22 03:25:14;;;;;;;8.52;1.30;;;;;;;;;;5012107;28;20097;-80
2021/05/22 03:27:39;;;;;;;8.07;1.13;;;;;;;;;;5012259;28;20022;-80
2021/05/22 03:30:05;;;;;;;13.13;1.60;;;;;;;;;;5010615;28;20024;-80
2021/05/22 03:32:30;;;;;;;10.85;2.10;;;;;;;;;;5010648;28;20022;-80
2021/05/22 03:34:56;;;;;;;10.80;1.50;;;;;;;;;;5026731;28;20101;-80
2021/05/22 03:37:21;;;;;;;14.05;2.08;;;;;;;;;;5035615;28;20022;-80
2021/05/22 03:39:46;;;;;;;14.20;1.83;;;;;;;;;;5010577;28;20017;-80
2021/05/22 03:42:12;;;;;;;12.75;1.67;;;;;;;;;;5011586;28;20376;-80
2021/05/22 03:44:37;;;;;;;13.15;1.50;;;;;;;;;;5027050;28;20018;-80
2021/05/22 03:47:02;;;;;;;14.38;1.70;;;;;;;;;;5026636;28;20014;-80
2021/05/22 03:49:30;;;;;;;14.32;2.50;;;;;;;;;;5011265;28;20033;-81
2021/05/22 03:51:56;;;;;;;11.70;1.58;;;;;;;;;;5014908;28;20082;-80
2021/05/22 03:54:21;;;;;;;18.23;1.88;;;;;;;;;;5011411;28;20021;-79
2021/05/22 03:56:46;;;;;;;8.88;1.52;;;;;;;;;;5011612;28;20026;-80
2021/05/22 03:59:12;;;;;;;17.02;1.85;;;;;;;;;;5011285;28;20014;-80
2021/05/22 04:01:37;;;;;;;11.25;1.85;;;;;;;;;;5011790;28;20449;-79
2021/05/22 04:04:03;;;;;;;12.50;1.70;;;;;;;;;;5011420;28;20022;-80
2021/05/22 04:06:28;;;;;;;8.60;2.05;;;;;;;;;;5011279;28;20014;-80
2021/05/22 04:08:53;;;;;;;13.35;1.90;;;;;;;;;;5010381;28;20037;-79
2021/05/22 04:11:18;;;;;;;17.75;2.22;;;;;;;;;;5022507;28;20453;-80
2021/05/22 04:13:44;;;;;;;18.20;2.35;;;;;;;;;;5012410;28;20030;-80
2021/05/22 04:16:09;;;;;;;12.10;1.90;;;;;;;;;;5009903;28;20022;-79
2021/05/22 04:18:35;;;;;;;10.30;1.70;;;;;;;;;;5011175;28;20477;-80
2021/05/22 04:21:00;;;;;;;8.90;2.13;;;;;;;;;;5010958;28;20105;-79
2021/05/22 04:23:25;;;;;;;8.65;2.08;;;;;;;;;;5011016;28;20469;-80
2021/05/22 04:25:50;;;;;;;12.02;2.17;;;;;;;;;;5010875;28;20354;-80
2021/05/22 04:28:15;;;;;;;15.13;2.25;;;;;;;;;;5017251;28;20022;-80
2021/05/22 04:30:41;;;;;;;12.70;2.30;;;;;;;;;;5010020;28;20033;-80
2021/05/22 04:33:06;;;;;;;14.30;2.92;;;;;;;;;;5011072;28;20427;-80
2021/05/22 04:35:31;;;;;;;11.90;1.90;;;;;;;;;;5010877;28;20028;-80
2021/05/22 04:37:56;;;;;;;11.82;1.92;;;;;;;;;;5010991;28;20453;-80
2021/05/22 04:40:22;;;;;;;13.32;2.47;;;;;;;;;;5010742;28;20018;-80
2021/05/22 04:42:47;;;;;;;16.25;2.20;;;;;;;;;;5010676;28;20022;-80
2021/05/22 04:45:12;;;;;;;10.27;2.15;;;;;;;;;;5010890;28;20022;-80
2021/05/22 04:47:39;;;;;;;13.98;2.38;;;;;;;;;;5010661;28;20018;-80
2021/05/22 04:50:05;;;;;;;24.85;2.70;;;;;;;;;;5010603;28;20097;-80
2021/05/22 04:52:30;;;;;;;12.88;2.33;;;;;;;;;;5009111;28;20063;-80
2021/05/22 04:54:55;;;;;;;13.25;1.95;;;;;;;;;;5010737;28;20014;-80
2021/05/22 04:57:21;;;;;;;9.65;1.80;;;;;;;;;;5010921;28;20014;-80
2021/05/22 04:59:46;;;;;;;21.30;2.78;;;;;;;;;;5025396;28;20025;-80
2021/05/22 05:02:11;;;;;;;14.38;2.17;;;;;;;;;;5011479;28;20030;-80
2021/05/22 05:04:36;;;;;;;15.77;2.60;;;;;;;;;;5009337;28;20013;-80
2021/05/22 05:07:05;;;;;;;10.80;1.77;;;;;;;;;;5009460;28;20389;-80
2021/05/22 05:09:34;;;;;;;20.00;2.63;;;;;;;;;;5010359;28;20014;-80
2021/05/22 05:12:03;;;;;;;9.95;1.80;;;;;;;;;;5010495;28;20034;-80
2021/05/22 05:14:28;;;;;;;13.68;1.67;;;;;;;;;;5010173;28;20026;-81
2021/05/22 05:16:53;;;;;;;31.35;2.67;;;;;;;;;;5010583;28;20029;-80
2021/05/22 05:19:18;;;;;;;16.52;2.03;;;;;;;;;;5019282;28;20029;-80
2021/05/22 05:21:44;;;;;;;15.70;1.95;;;;;;;;;;5021557;28;20849;-80
2021/05/22 05:24:09;;;;;;;13.57;1.98;;;;;;;;;;5010694;28;20026;-80
2021/05/22 05:26:34;;;;;;;17.15;1.75;;;;;;;;;;5010357;28;20064;-80
2021/05/22 05:28:59;;;;;;;15.63;2.17;;;;;;;;;;5010444;28;20022;-81
2021/05/22 05:31:24;;;;;;;8.90;1.50;;;;;;;;;;5009915;28;20034;-80
2021/05/22 05:33:50;;;;;;;9.82;1.35;;;;;;;;;;5010306;28;20042;-80
2021/05/22 05:36:15;;;;;;;9.73;1.42;;;;;;;;;;5010152;28;20529;-80
2021/05/22 05:38:40;;;;;;;12.40;1.85;;;;;;;;;;5008747;28;20038;-80
2021/05/22 05:41:05;;;;;;;23.33;1.75;;;;;;;;;;5010265;28;20047;-80
2021/05/22 05:43:30;;;;;;;22.95;2.08;;;;;;;;;;5010052;28;20056;-80
2021/05/22 05:45:56;;;;;;;12.95;1.92;;;;;;;;;;5009654;28;20143;-80
2021/05/22 05:48:21;;;;;;;22.70;2.38;;;;;;;;;;5010305;28;20021;-80
2021/05/22 05:50:46;;;;;;;25.80;2.22;;;;;;;;;;5010121;28;20038;-80
2021/05/22 05:53:11;;;;;;;14.18;1.67;;;;;;;;;;5009889;28;20022;-81
2021/05/22 05:55:36;;;;;;;10.75;2.65;;;;;;;;;;5009717;28;20022;-80
2021/05/22 05:58:02;;;;;;;20.33;1.65;;;;;;;;;;5010053;28;20404;-80
2021/05/22 06:00:27;;;;;;;9.27;1.50;;;;;;;;;;5009789;28;20037;-80
2021/05/22 06:02:52;;;;;;;14.73;1.63;;;;;;;;;;5008450;28;20014;-80
2021/05/22 06:05:18;;;;;;;5.88;1.25;;;;;;;;;;5009721;28;20384;-80
2021/05/22 06:07:43;;;;;;;11.52;1.50;;;;;;;;;;5009782;28;20092;-80
2021/05/22 06:10:09;;;;;;;11.63;1.15;;;;;;;;;;5017320;28;20049;-80
2021/05/22 06:12:35;;;;;;;11.27;2.70;;;;;;;;;;5014341;28;20037;-80
2021/05/22 06:15:21;;;;;;;10.65;1.45;;;;;;;;;;5010104;28;20053;-80
2021/05/22 06:17:46;;;;;;;7.50;1.67;;;;;;;;;;5011313;28;20026;-80
2021/05/22 06:20:12;;;;;;;8.57;1.58;;;;;;;;;;5011237;28;20491;-80
2021/05/22 06:22:37;;;;;;;10.88;1.88;;;;;;;;;;5010884;28;20029;-80
2021/05/22 06:25:03;;;;;;;13.02;1.73;;;;;;;;;;5009872;28;20022;-80
2021/05/22 06:27:28;;;;;;;10.55;1.80;;;;;;;;;;5010316;28;20370;-80
2021/05/22 06:29:53;;;;;;;8.75;1.55;;;;;;;;;;5010975;28;20018;-80
2021/05/22 06:32:18;;;;;;;7.03;1.17;;;;;;;;;;5013925;28;20030;-80
2021/05/22 06:34:44;;;;;;;8.05;1.95;;;;;;;;;;5027844;28;20874;-81
2021/05/22 06:37:09;;;;;;;11.73;1.85;;;;;;;;;;5026961;28;20026;-81
2021/05/22 06:39:34;;;;;;;10.63;1.73;;;;;;;;;;5034536;28;20045;-82
2021/05/22 06:41:59;;;;;;;14.70;2.10;;;;;;;;;;5011397;28;20026;-81
2021/05/22 06:44:26;;;;;;;7.32;1.25;;;;;;;;;;5025151;28;20041;-81
2021/05/22 06:46:51;;;;;;;6.25;1.52;;;;;;;;;;5026682;28;20538;-81
2021/05/22 06:49:18;;;;;;;8.30;1.58;;;;;;;;;;5010888;28;20046;-81
2021/05/22 06:51:44;;;;;;;11.10;1.52;;;;;;;;;;5012611;28;20133;-81
2021/05/22 06:54:09;;;;;;;7.30;1.17;;;;;;;;;;5011082;28;20108;-82
2021/05/22 06:56:35;;;;;;;8.90;1.40;;;;;;;;;;5011161;28;20030;-81
2021/05/22 06:59:00;;;;;;;14.15;1.80;;;;;;;;;;5012045;28;20042;-81
2021/05/22 07:01:26;;;;;;;11.50;1.75;;;;;;;;;;5010972;28;20033;-81
2021/05/22 07:03:52;;;;;;;9.45;1.70;;;;;;;;;;5012502;28;20093;-81
2021/05/22 07:06:18;;;;;;;9.00;1.58;;;;;;;;;;5012322;28;20047;-80
2021/05/22 07:08:43;;;;;;;9.10;1.60;;;;;;;;;;5012262;28;20096;-82
2021/05/22 07:11:08;;;;;;;12.40;1.70;;;;;;;;;;5029089;28;20117;-81
2021/05/22 07:13:33;;;;;;;12.63;1.58;;;;;;;;;;5027611;28;20033;-81
2021/05/22 07:15:58;;;;;;;12.73;1.45;;;;;;;;;;5018930;28;20057;-80
2021/05/22 07:18:24;;;;;;;11.95;1.88;;;;;;;;;;5068777;28;20022;-81
2021/05/22 07:20:49;;;;;;;10.05;1.95;;;;;;;;;;5027368;28;20018;-81
2021/05/22 07:23:14;;;;;;;12.05;2.17;;;;;;;;;;5011560;28;20044;-82
2021/05/22 07:25:39;;;;;;;15.38;2.20;;;;;;;;;;5013198;28;20430;-82
2021/05/22 07:28:07;;;;;;;9.75;2.33;;;;;;;;;;5014208;28;20022;-81
2021/05/22 07:30:32;;;;;;;9.60;1.88;;;;;;;;;;5016844;28;20049;-81
2021/05/22 07:32:57;;;;;;;14.55;1.45;;;;;;;;;;5044303;28;20028;-82
2021/05/22 07:35:22;;;;;;;9.43;1.60;;;;;;;;;;5011991;28;20120;-82
2021/05/22 07:37:47;;;;;;;9.55;1.90;;;;;;;;;;5027182;28;20018;-82
2021/05/22 07:40:13;;;;;;;13.52;2.10;;;;;;;;;;5032202;28;20766;-82
2021/05/22 07:42:39;;;;;;;21.10;2.20;;;;;;;;;;5012086;28;20074;-82
2021/05/22 07:45:04;;;;;;;11.15;1.70;;;;;;;;;;5018938;28;20102;-81
2021/05/22 07:47:30;;;;;;;9.98;1.83;;;;;;;;;;5013033;28;20511;-81
2021/05/22 07:49:55;;;;;;;12.35;2.20;;;;;;;;;;5060905;28;20041;-82
2021/05/22 07:52:21;;;;;;;14.32;1.88;;;;;;;;;;5011763;28;20147;-82
2021/05/22 07:54:47;;;;;;;7.78;1.65;;;;;;;;;;5011932;28;20030;-81
2021/05/22 07:57:12;;;;;;;11.00;1.73;;;;;;;;;;5011659;28;20054;-82
2021/05/22 07:59:38;;;;;;;7.93;1.63;;;;;;;;;;5012089;28;20049;-81
2021/05/22 08:02:04;;;;;;;6.95;1.42;;;;;;;;;;5010505;28;20461;-81
2021/05/22 08:04:29;;;;;;;11.48;2.05;;;;;;;;;;5011366;28;20457;-81
2021/05/22 08:06:55;;;;;;;13.10;1.98;;;;;;;;;;5047965;28;20047;-81
2021/05/22 08:09:20;;;;;;;12.23;2.10;;;;;;;;;;5023113;28;20040;-81
2021/05/22 08:11:45;;;;;;;9.18;2.17;;;;;;;;;;5010204;28;20106;-81
2021/05/22 08:14:11;;;;;;;9.32;1.95;;;;;;;;;;5043995;28;20426;-81
2021/05/22 08:16:37;;;;;;;15.43;2.55;;;;;;;;;;5057937;28;20018;-81
2021/05/22 08:19:02;;;;;;;13.88;3.13;;;;;;;;;;5026490;28;20047;-81
2021/05/22 08:21:28;;;;;;;12.30;2.58;;;;;;;;;;5009812;28;20052;-81
2021/05/22 08:23:53;;;;;;;10.15;2.17;;;;;;;;;;5011543;28;20025;-81
2021/05/22 08:26:19;;;;;;;10.32;2.42;;;;;;;;;;5040920;28;20019;-81
2021/05/22 08:28:44;;;;;;;12.38;2.17;;;;;;;;;;5012462;28;20483;-81
2021/05/22 08:31:09;;;;;;;11.73;2.47;;;;;;;;;;5044569;28;20478;-81
2021/05/22 08:33:34;;;;;;;10.60;2.00;;;;;;;;;;5036673;28;20475;-81
2021/05/22 08:36:00;;;;;;;11.88;2.50;;;;;;;;;;5038475;28;20022;-82
2021/05/22 08:38:25;;;;;;;8.63;2.28;;;;;;;;;;5015240;28;20030;-81
2021/05/22 08:40:50;;;;;;;10.60;2.65;;;;;;;;;;5016862;28;20022;-82
2021/05/22 08:43:15;;;;;;;11.38;2.92;;;;;;;;;;5011254;28;20053;-83
2021/05/22 08:45:41;;;;;;;14.95;2.80;;;;;;;;;;5054471;27;20026;-81
2021/05/22 08:48:07;;;;;;;14.05;2.42;;;;;;;;;;5012110;28;20033;-81
2021/05/22 08:50:32;;;;;;;10.30;2.83;;;;;;;;;;5058059;28;20521;-81
2021/05/22 08:52:57;;;;;;;11.50;2.45;;;;;;;;;;4999205;28;20359;-80
2021/05/22 08:55:23;;;;;;;14.07;2.13;;;;;;;;;;5024024;28;20029;-81
2021/05/22 08:57:48;;;;;;;11.50;2.55;;;;;;;;;;5026414;28;20021;-80
2021/05/22 09:00:15;;;;;;;10.80;2.67;;;;;;;;;;5026332;28;20016;-80
2021/05/22 09:02:41;;;;;;;10.93;2.65;;;;;;;;;;5072406;28;20045;-81
2021/05/22 09:05:12;;;;;;;14.48;2.67;;;;;;;;;;5021423;28;20050;-80
2021/05/22 09:07:38;;;;;;;12.00;2.95;;;;;;;;;;5031193;28;20023;-81
2021/05/22 09:10:09;;;;;;;13.77;3.10;;;;;;;;;;5020515;28;20026;-80
2021/05/22 09:12:35;;;;;;;16.92;3.35;;;;;;;;;;5031506;28;20368;-80
2021/05/22 09:15:06;;;;;;;11.45;2.88;;;;;;;;;;5021498;28;20045;-81
2021/05/22 09:17:31;;;;;;;16.52;3.33;;;;;;;;;;5083645;28;20375;-81
2021/05/22 09:20:08;;;;;;;12.15;3.03;;;;;;;;;;5020465;28;20013;-81
2021/05/22 09:22:34;;;;;;;8.63;2.53;;;;;;;;;;5068410;28;20019;-81
2021/05/22 09:25:00;;;;;;;10.65;2.40;;;;;;;;;;5023851;28;20029;-81
2021/05/22 09:27:33;;;;;;;15.73;2.65;;;;;;;;;;5021500;28;20018;-80
2021/05/22 09:30:12;;;;;;;8.85;2.47;;;;;;;;;;5019600;28;20026;-81
2021/05/22 09:32:37;;;;;;;15.23;2.10;;;;;;;;;;5021981;28;20033;-81
2021/05/22 09:35:03;;;;;;;14.85;2.70;;;;;;;;;;5018918;28;20055;-81
2021/05/22 09:37:28;;;;;;;11.07;2.33;;;;;;;;;;5010303;28;20384;-81
2021/05/22 09:39:54;;;;;;;7.80;2.10;;;;;;;;;;5010090;28;20016;-81
2021/05/22 09:42:26;;;;;;;8.32;1.92;;;;;;;;;;5008580;28;20022;-80
2021/05/22 09:44:51;;;;;;;;;;;;;;;;;;5011628;28;20018;-80
2021/05/22 09:47:17;;;;;;;11.90;2.10;;;;;;;;;;5018485;28;19923;-80
2021/05/22 09:49:42;;;;;;;12.38;1.60;;;;;;;;;;5047257;28;20471;-80
2021/05/22 09:52:10;;;;;;;9.48;1.90;;;;;;;;;;5041145;28;20025;-81
2021/05/22 09:54:38;;;;;;;9.00;1.48;;;;;;;;;;5022413;28;20032;-80
2021/05/22 09:57:04;;;;;;;6.65;1.20;;;;;;;;;;5020581;28;20461;-81
2021/05/22 09:59:29;;;;;;;6.95;1.20;;;;;;;;;;5018411;28;20018;-80
2021/05/22 10:01:54;;;;;;;8.02;1.42;;;;;;;;;;5025627;28;20041;-81
2021/05/22 10:04:20;;;;;;;5.90;1.10;;;;;;;;;;5022314;28;20636;-81
2021/05/22 10:06:46;;;;;;;10.23;1.75;;;;;;;;;;5016984;28;20113;-81
2021/05/22 10:09:16;;;;;;;5.22;1.23;;;;;;;;;;5023171;28;20109;-81
2021/05/22 10:12:01;;;;;;;7.70;1.50;;;;;;;;;;5023904;28;20504;-80
2021/05/22 10:14:47;;;;;;;9.40;1.48;;;;;;;;;;5036735;28;20035;-82
2021/05/22 10:17:13;;;;;;;7.10;1.52;;;;;;;;;;5018659;28;20037;-81
2021/05/22 10:19:39;;;;;;;7.97;1.30;;;;;;;;;;5018141;28;20024;-81
2021/05/22 10:22:05;;;;;;;9.52;1.65;;;;;;;;;;5023848;28;20105;-81
2021/05/22 10:24:30;;;;;;;10.20;1.70;;;;;;;;;;5016962;28;20064;-80
2021/05/22 10:26:56;;;;;;;7.28;1.50;;;;;;;;;;5017420;28;20037;-81
2021/05/22 10:29:22;;;;;;;15.30;2.05;;;;;;;;;;5059984;28;20128;-80
2021/05/22 10:31:47;;;;;;;7.75;1.52;;;;;;;;;;5061382;28;20033;-81
2021/05/22 10:34:17;;;;;;;8.20;1.95;;;;;;;;;;5050071;28;20029;-80
2021/05/22 10:36:51;;;;;;;9.15;1.83;;;;;;;;;;5073225;28;20030;-81
2021/05/22 10:39:38;;;;;;;9.60;2.65;;;;;;;;;;5009320;28;20034;-80
2021/05/22 10:42:03;;;;;;;12.55;2.28;;;;;;;;;;5053922;28;20029;-80
2021/05/22 10:44:34;;;;;;;14.30;2.25;;;;;;;;;;5074258;28;20711;-80
2021/05/22 10:47:06;;;;;;;15.57;2.75;;;;;;;;;;5074138;28;20032;-80
2021/05/22 10:49:31;;;;;;;;;;;;;;;;;;5089421;28;20036;-80
2021/05/22 10:52:14;;;;;;;12.20;2.08;;;;;;;;;;5059250;28;19909;-80
2021/05/22 10:54:39;;;;;;;;;;;;;;;;;;5040281;28;20268;-80
2021/05/22 10:57:07;;;;;;;7.93;1.73;;;;;;;;;;5045635;28;19909;-80
2021/05/22 10:59:32;;;;;;;12.95;2.40;;;;;;;;;;5019252;28;20317;-81
2021/05/22 11:01:59;;;;;;;11.13;2.13;;;;;;;;;;5015890;28;20475;-80
2021/05/22 11:04:26;;;;;;;8.00;2.05;;;;;;;;;;5035234;28;20104;-80
2021/05/22 11:06:53;;;;;;;12.98;2.10;;;;;;;;;;5070668;28;20025;-80
2021/05/22 11:09:25;;;;;;;6.65;1.85;;;;;;;;;;5034799;28;20393;-80
2021/05/22 11:11:50;;;;;;;9.97;2.60;;;;;;;;;;5012525;28;20018;-80
2021/05/22 11:14:35;;;;;;;6.85;1.85;;;;;;;;;;5040954;28;20122;-80
2021/05/22 11:17:00;;;;;;;12.15;2.22;;;;;;;;;;5062664;28;20022;-79
2021/05/22 11:19:26;;;;;;;8.48;1.83;;;;;;;;;;5040402;28;20033;-80
2021/05/22 11:22:13;;;;;;;9.13;2.05;;;;;;;;;;5017826;28;20026;-80
2021/05/22 11:24:58;;;;;;;13.15;2.42;;;;;;;;;;5078800;28;20035;-80
2021/05/22 11:27:44;;;;;;;10.40;2.10;;;;;;;;;;5008173;28;20532;-81
2021/05/22 11:30:09;;;;;;;10.13;2.28;;;;;;;;;;5054955;28;20026;-80
2021/05/22 11:32:44;;;;;;;13.52;2.67;;;;;;;;;;5012658;28;20105;-80
2021/05/22 11:35:29;;;;;;;10.63;2.38;;;;;;;;;;5045930;28;20037;-80
2021/05/22 11:37:55;;;;;;;10.15;2.10;;;;;;;;;;5018058;28;20029;-80
2021/05/22 11:40:35;;;;;;;9.05;1.92;;;;;;;;;;5051831;28;20029;-80
2021/05/22 11:43:22;;;;;;;8.40;1.92;;;;;;;;;;5017984;28;20473;-81
2021/05/22 11:45:48;;;;;;;8.05;1.80;;;;;;;;;;5045074;28;20014;-81
2021/05/22 11:48:40;;;;;;;8.05;1.58;;;;;;;;;;5020239;28;20041;-81
2021/05/22 11:51:09;;;;;;;7.43;1.70;;;;;;;;;;5011099;28;20030;-81
2021/05/22 11:53:34;;;;;;;3.42;1.30;;;;;;;;;;5015337;28;20033;-82
2021/05/22 11:56:03;;;;;;;7.03;1.50;;;;;;;;;;5037210;28;20030;-82
2021/05/22 11:58:29;;;;;;;6.72;1.88;;;;;;;;;;5053831;28;20011;-82
2021/05/22 12:00:54;;;;;;;10.05;1.60;;;;;;;;;;5012128;28;20075;-82
2021/05/22 12:03:24;;;;;;;7.25;1.90;;;;;;;;;;5010559;28;20026;-81
2021/05/22 12:05:49;;;;;;;7.60;1.90;;;;;;;;;;5071933;28;20372;-81
2021/05/22 12:08:15;;;;;;;7.47;2.17;;;;;;;;;;5024698;28;20102;-82
2021/05/22 12:10:40;;;;;;;7.28;2.38;;;;;;;;;;5011260;28;20093;-82
2021/05/22 12:13:06;;;;;;;7.38;1.98;;;;;;;;;;5066131;28;20060;-82
2021/05/22 12:15:32;;;;;;;6.93;1.77;;;;;;;;;;5064504;28;20019;-82
2021/05/22 12:18:01;;;;;;;7.95;2.00;;;;;;;;;;5023879;28;20419;-82
2021/05/22 12:20:27;;;;;;;7.15;2.00;;;;;;;;;;5059743;28;20026;-82
2021/05/22 12:22:52;;;;;;;10.98;2.55;;;;;;;;;;5011188;28;20091;-82
2021/05/22 12:25:18;;;;;;;7.72;1.98;;;;;;;;;;5025906;28;20018;-81
2021/05/22 12:27:43;;;;;;;8.82;2.45;;;;;;;;;;5010169;28;20523;-81
2021/05/22 12:30:09;;;;;;;7.22;2.33;;;;;;;;;;5047033;28;20500;-81
2021/05/22 12:32:34;;;;;;;7.28;2.30;;;;;;;;;;5015169;28;20041;-81
2021/05/22 12:35:01;;;;;;;9.13;2.50;;;;;;;;;;5023165;28;20034;-81
2021/05/22 12:37:29;;;;;;;6.35;1.88;;;;;;;;;;5017806;28;20024;-81
2021/05/22 12:39:59;;;;;;;9.48;2.30;;;;;;;;;;5017841;28;20018;-82
2021/05/22 12:42:26;;;;;;;7.18;1.70;;;;;;;;;;5042488;28;20497;-81
2021/05/22 12:44:53;;;;;;;4.68;1.23;;;;;;;;;;5027161;28;20062;-81
2021/05/22 12:47:21;;;;;;;5.90;0.93;;;;;;;;;;5026856;28;20024;-82
2021/05/22 12:49:50;;;;;;;3.67;1.05;;;;;;;;;;5043895;28;20418;-82
2021/05/22 12:52:15;;;;;;;6.43;1.25;;;;;;;;;;5016204;28;20033;-82
2021/05/22 12:54:42;;;;;;;4.30;1.10;;;;;;;;;;5077394;28;20363;-82
2021/05/22 12:57:18;;;;;;;3.13;1.33;;;;;;;;;;5039846;28;20023;-82
2021/05/22 12:59:43;;;;;;;4.68;1.55;;;;;;;;;;5049724;28;20011;-82
2021/05/22 13:02:11;;;;;;;5.32;1.42;;;;;;;;;;5041927;28;20034;-82
2021/05/22 13:04:37;;;;;;;9.35;1.85;;;;;;;;;;5056301;28;20018;-82
2021/05/22 13:07:02;;;;;;;4.75;1.40;;;;;;;;;;5016633;28;20033;-82
2021/05/22 13:09:27;;;;;;;2.47;1.20;;;;;;;;;;5037638;28;20555;-82
2021/05/22 13:12:01;;;;;;;2.47;1.30;;;;;;;;;;5053849;28;20019;-82
2021/05/22 13:14:42;;;;;;;2.58;1.20;;;;;;;;;;5010219;28;20028;-82
2021/05/22 13:17:07;;;;;;;4.47;1.13;;;;;;;;;;5031816;28;20041;-82
2021/05/22 13:19:38;;;;;;;2.80;1.20;;;;;;;;;;5015860;28;20026;-82
2021/05/22 13:22:18;;;;;;;3.75;1.75;;;;;;;;;;5021025;28;20026;-82
2021/05/22 13:24:59;;;;;;;3.83;1.17;;;;;;;;;;5045122;28;20410;-81
2021/05/22 13:27:25;;;;;;;3.35;1.30;;;;;;;;;;5041221;28;20025;-82
2021/05/22 13:29:57;;;;;;;2.65;1.38;;;;;;;;;;5042911;28;20056;-82
2021/05/22 13:32:22;;;;;;;1.98;1.23;;;;;;;;;;5062772;28;20034;-82
2021/05/22 13:34:49;;;;;;;3.97;1.30;;;;;;;;;;5074772;28;20027;-82
2021/05/22 13:37:14;;;;;;;1.95;1.17;;;;;;;;;;5028368;28;20024;-81
2021/05/22 13:39:39;;;;;;;4.88;1.70;;;;;;;;;;5046510;28;20348;-82
2021/05/22 13:42:04;;;;;;;2.58;1.80;;;;;;;;;;5030610;28;20041;-81
2021/05/22 13:44:31;;;;;;;2.17;1.20;;;;;;;;;;5062553;28;20107;-82
2021/05/22 13:46:56;;;;;;;5.97;1.52;;;;;;;;;;5020453;28;20053;-81
2021/05/22 13:49:21;;;;;;;4.95;1.70;;;;;;;;;;5013109;28;20457;-81
2021/05/22 13:51:46;;;;;;;3.40;1.50;;;;;;;;;;5009146;28;20030;-82
2021/05/22 13:54:12;;;;;;;3.75;1.60;;;;;;;;;;5015818;28;20021;-82
2021/05/22 13:56:37;;;;;;;3.38;1.98;;;;;;;;;;5009893;28;20143;-82
2021/05/22 13:59:02;;;;;;;5.53;2.00;;;;;;;;;;5059785;28;20080;-82
2021/05/22 14:01:29;;;;;;;4.47;1.98;;;;;;;;;;5010344;28;20030;-82
2021/05/22 14:03:55;;;;;;;3.92;1.92;;;;;;;;;;5060629;28;20044;-82
2021/05/22 14:06:20;;;;;;;2.95;1.70;;;;;;;;;;5036000;28;20481;-82
2021/05/22 14:08:46;;;;;;;3.88;1.92;;;;;;;;;;5078082;28;20027;-82
2021/05/22 14:11:11;;;;;;;1.80;1.50;;;;;;;;;;5041363;28;20110;-82
2021/05/22 14:13:36;;;;;;;2.03;1.58;;;;;;;;;;5010026;28;20034;-82
2021/05/22 14:16:01;;;;;;;2.25;1.63;;;;;;;;;;5011714;28;20074;-81
2021/05/22 14:18:26;;;;;;;1.60;1.40;;;;;;;;;;5019628;28;20029;-82
2021/05/22 14:20:53;;;;;;;2.03;1.30;;;;;;;;;;5042505;28;20385;-82
2021/05/22 14:23:19;;;;;;;2.80;1.55;;;;;;;;;;5033278;28;20474;-81
2021/05/22 14:25:44;;;;;;;3.08;1.58;;;;;;;;;;5009861;28;20033;-81
2021/05/22 14:28:09;;;;;;;5.90;1.40;;;;;;;;;;5046487;28;20010;-83
2021/05/22 14:30:35;;;;;;;1.92;1.48;;;;;;;;;;5015071;28;20022;-82
2021/05/22 14:33:00;;;;;;;1.85;1.52;;;;;;;;;;5055158;28;20060;-81
2021/05/22 14:35:25;;;;;;;2.33;1.35;;;;;;;;;;5080295;28;20053;-82